createdAt,value
2022-12-17T00:00:32.448Z,95.33
2022-12-17T00:03:19.619Z,95.45
2022-12-17T00:06:05.051Z,95.52
2022-12-17T00:08:50.174Z,95.52
2022-12-17T00:11:35.358Z,95.71
2022-12-17T00:14:20.551Z,95.80
2022-12-17T00:17:05.848Z,96.22
2022-12-17T00:19:51.136Z,96.35
2022-12-17T00:22:37.038Z,96.16
2022-12-17T00:25:22.763Z,95.99
2022-12-17T00:28:08.234Z,95.88
2022-12-17T00:30:54.106Z,95.77
2022-12-17T00:33:39.492Z,96.09
2022-12-17T00:36:25.315Z,96.13
2022-12-17T00:39:10.361Z,96.10
2022-12-17T00:41:55.684Z,96.67
2022-12-17T00:44:41.451Z,96.89
2022-12-17T00:47:32.813Z,96.96
2022-12-17T00:50:18.081Z,96.75
2022-12-17T00:53:03.263Z,97.27
2022-12-17T00:55:48.580Z,97.33
2022-12-17T00:58:34.309Z,97.04
2022-12-17T01:01:21.049Z,97.50
2022-12-17T01:04:06.329Z,97.55
2022-12-17T01:06:52.864Z,97.27
2022-12-17T01:09:39.030Z,97.26
2022-12-17T01:12:24.405Z,97.43
2022-12-17T01:15:09.962Z,97.05
2022-12-17T01:17:56.317Z,97.86
2022-12-17T01:20:42.041Z,98.13
2022-12-17T01:23:27.837Z,98.08
2022-12-17T01:26:15.669Z,97.83
2022-12-17T01:29:01.494Z,97.59
2022-12-17T01:31:46.767Z,97.40
2022-12-17T01:34:31.971Z,98.07
2022-12-17T01:37:17.249Z,98.51
2022-12-17T01:40:02.300Z,98.93
2022-12-17T01:42:59.773Z,99.18
2022-12-17T01:45:52.138Z,98.76
2022-12-17T01:48:37.318Z,99.03
2022-12-17T01:51:36.987Z,99.01
2022-12-17T01:54:23.291Z,99.42
2022-12-17T01:57:09.089Z,99.02
2022-12-17T02:00:39.995Z,99.37
2022-12-17T02:03:33.474Z,100.00
2022-12-17T02:06:29.289Z,100.00
2022-12-17T02:09:38.421Z,100.00
2022-12-17T02:12:32.017Z,100.00
2022-12-17T02:15:44.690Z,100.00
2022-12-17T02:18:37.415Z,100.00
2022-12-17T02:21:24.672Z,100.00
2022-12-17T02:24:28.473Z,100.00
2022-12-17T02:27:19.404Z,100.00
2022-12-17T02:30:12.246Z,100.00
2022-12-17T02:33:01.268Z,100.00
2022-12-17T02:35:50.989Z,100.00
2022-12-17T02:38:38.359Z,100.00
2022-12-17T02:41:26.673Z,100.00
2022-12-17T02:44:14.042Z,100.00
2022-12-17T02:47:01.802Z,100.00
2022-12-17T02:49:47.092Z,100.00
2022-12-17T02:52:37.036Z,100.00
2022-12-17T02:55:23.467Z,100.00
2022-12-17T02:58:08.664Z,100.00
2022-12-17T03:00:54.084Z,100.00
2022-12-17T03:03:39.674Z,100.00
2022-12-17T03:06:25.200Z,100.00
2022-12-17T03:09:10.617Z,100.00
2022-12-17T03:11:56.763Z,100.00
2022-12-17T03:14:42.175Z,100.00
2022-12-17T03:17:27.330Z,100.00
2022-12-17T03:20:12.855Z,100.00
2022-12-17T03:22:57.947Z,100.00
2022-12-17T03:25:43.451Z,100.00
2022-12-17T03:28:30.476Z,100.00
2022-12-17T03:31:17.476Z,100.00
2022-12-17T03:34:03.245Z,100.00
2022-12-17T03:36:48.906Z,100.00
2022-12-17T03:39:34.104Z,100.00
2022-12-17T03:42:19.224Z,100.00
2022-12-17T03:45:04.344Z,100.00
2022-12-17T03:47:50.432Z,100.00
2022-12-17T03:50:35.775Z,100.00
2022-12-17T03:53:24.488Z,100.00
2022-12-17T03:56:09.773Z,100.00
2022-12-17T03:58:54.891Z,100.00
2022-12-17T04:01:40.184Z,100.00
2022-12-17T04:04:25.581Z,100.00
2022-12-17T04:07:11.287Z,100.00
2022-12-17T04:09:56.546Z,100.00
2022-12-17T04:12:41.899Z,100.00
2022-12-17T04:15:27.479Z,100.00
2022-12-17T04:18:12.657Z,100.00
2022-12-17T04:20:57.757Z,100.00
2022-12-17T04:23:43.027Z,100.00
2022-12-17T04:26:28.330Z,100.00
2022-12-17T04:29:13.666Z,100.00
2022-12-17T04:31:58.888Z,100.00
2022-12-17T04:34:44.037Z,100.00
2022-12-17T04:37:29.619Z,100.00
2022-12-17T04:40:14.904Z,100.00
2022-12-17T04:43:00.093Z,100.00
2022-12-17T04:45:46.057Z,100.00
2022-12-17T04:48:31.238Z,100.00
2022-12-17T04:51:16.406Z,100.00
2022-12-17T04:54:02.001Z,100.00
2022-12-17T04:56:47.639Z,100.00
2022-12-17T04:59:32.921Z,100.00
2022-12-17T05:02:18.228Z,100.00
2022-12-17T05:05:03.557Z,100.00
2022-12-17T05:07:49.000Z,100.00
2022-12-17T05:10:34.380Z,100.00
2022-12-17T05:13:20.168Z,100.00
2022-12-17T05:16:05.759Z,100.00
2022-12-17T05:18:51.568Z,100.00
2022-12-17T05:21:36.865Z,100.00
2022-12-17T05:24:22.116Z,100.00
2022-12-17T05:27:07.469Z,100.00
2022-12-17T05:29:52.763Z,100.00
2022-12-17T05:32:38.095Z,100.00
2022-12-17T05:35:23.588Z,100.00
2022-12-17T05:38:09.076Z,100.00
2022-12-17T05:40:54.487Z,100.00
2022-12-17T05:43:39.962Z,100.00
2022-12-17T05:46:25.353Z,100.00
2022-12-17T05:49:10.730Z,100.00
2022-12-17T05:51:55.994Z,100.00
2022-12-17T05:54:41.511Z,100.00
2022-12-17T05:57:27.140Z,100.00
2022-12-17T06:00:12.558Z,100.00
2022-12-17T06:02:57.956Z,100.00
2022-12-17T06:05:43.148Z,100.00
2022-12-17T06:08:28.667Z,100.00
2022-12-17T06:11:17.819Z,100.00
2022-12-17T06:14:04.023Z,100.00
2022-12-17T06:16:49.287Z,100.00
2022-12-17T06:19:34.709Z,100.00
2022-12-17T06:22:19.898Z,100.00
2022-12-17T06:25:05.097Z,100.00
2022-12-17T06:27:50.255Z,100.00
2022-12-17T06:30:35.901Z,100.00
2022-12-17T06:33:27.366Z,100.00
2022-12-17T06:36:21.336Z,100.00
2022-12-17T06:39:07.633Z,100.00
2022-12-17T06:41:52.974Z,100.00
2022-12-17T06:44:45.560Z,100.00
2022-12-17T06:47:31.088Z,100.00
2022-12-17T06:50:16.629Z,100.00
2022-12-17T06:53:02.055Z,100.00
2022-12-17T06:55:47.387Z,100.00
2022-12-17T06:58:32.551Z,100.00
2022-12-17T07:01:18.245Z,100.00
2022-12-17T07:04:03.484Z,100.00
2022-12-17T07:06:49.110Z,100.00
2022-12-17T07:09:34.613Z,100.00
2022-12-17T07:12:19.985Z,100.00
2022-12-17T07:15:05.127Z,100.00
2022-12-17T07:17:50.241Z,100.00
2022-12-17T07:20:35.820Z,100.00
2022-12-17T07:23:21.190Z,100.00
2022-12-17T07:26:06.418Z,100.00
2022-12-17T07:28:51.997Z,100.00
2022-12-17T07:31:37.404Z,100.00
2022-12-17T07:34:22.716Z,100.00
2022-12-17T07:37:07.997Z,100.00
2022-12-17T07:39:53.356Z,100.00
2022-12-17T07:42:38.888Z,100.00
2022-12-17T07:45:25.194Z,100.00
2022-12-17T07:48:14.107Z,100.00
2022-12-17T07:50:59.818Z,100.00
2022-12-17T07:53:44.943Z,100.00
2022-12-17T07:56:30.055Z,100.00
2022-12-17T07:59:15.090Z,100.00
2022-12-17T08:02:09.667Z,100.00
2022-12-17T08:04:55.748Z,100.00
2022-12-17T08:07:41.018Z,100.00
2022-12-17T08:10:26.352Z,100.00
2022-12-17T08:13:20.605Z,100.00
2022-12-17T08:16:06.273Z,100.00
2022-12-17T08:18:52.042Z,100.00
2022-12-17T08:21:37.450Z,100.00
2022-12-17T08:24:23.244Z,100.00
2022-12-17T08:27:08.505Z,100.00
2022-12-17T08:29:53.805Z,100.00
2022-12-17T08:32:39.474Z,100.00
2022-12-17T08:35:24.571Z,100.00
2022-12-17T08:38:20.396Z,100.00
2022-12-17T08:41:05.860Z,100.00
2022-12-17T08:43:51.371Z,100.00
2022-12-17T08:46:38.680Z,100.00
2022-12-17T08:49:24.191Z,100.00
2022-12-17T08:52:09.370Z,100.00
2022-12-17T08:54:54.753Z,100.00
2022-12-17T08:57:40.396Z,100.00
2022-12-17T09:00:26.183Z,100.00
2022-12-17T09:03:21.284Z,100.00
2022-12-17T09:06:06.421Z,100.00
2022-12-17T09:08:52.215Z,100.00
2022-12-17T09:11:37.528Z,100.00
2022-12-17T09:14:22.894Z,100.00
2022-12-17T09:17:08.167Z,100.00
2022-12-17T09:19:53.277Z,100.00
2022-12-17T09:22:38.787Z,100.00
2022-12-17T09:25:24.265Z,100.00
2022-12-17T09:28:09.909Z,100.00
2022-12-17T09:30:55.403Z,100.00
2022-12-17T09:33:40.713Z,100.00
2022-12-17T09:36:26.663Z,100.00
2022-12-17T09:39:12.013Z,100.00
2022-12-17T09:42:18.915Z,100.00
2022-12-17T09:45:15.804Z,100.00
2022-12-17T09:48:00.625Z,100.00
2022-12-17T09:50:46.236Z,100.00
2022-12-17T09:53:42.392Z,100.00
2022-12-17T09:56:32.459Z,100.00
2022-12-17T09:59:18.165Z,100.00
2022-12-17T10:02:03.592Z,100.00
2022-12-17T10:04:54.114Z,100.00
2022-12-17T10:07:43.485Z,100.00
2022-12-17T10:10:41.551Z,100.00
2022-12-17T10:13:33.209Z,100.00
2022-12-17T10:16:19.026Z,100.00
2022-12-17T10:19:05.180Z,100.00
2022-12-17T10:21:51.152Z,100.00
2022-12-17T10:24:36.464Z,100.00
2022-12-17T10:27:29.533Z,100.00
2022-12-17T10:30:15.169Z,100.00
2022-12-17T10:33:00.615Z,100.00
2022-12-17T10:35:54.413Z,100.00
2022-12-17T10:38:42.751Z,100.00
2022-12-17T10:41:44.912Z,100.00
2022-12-17T10:44:47.508Z,100.00
2022-12-17T10:47:36.475Z,100.00
2022-12-17T10:50:28.115Z,100.00
2022-12-17T10:53:13.637Z,100.00
2022-12-17T10:56:07.942Z,100.00
2022-12-17T10:58:53.640Z,100.00
2022-12-17T11:01:44.820Z,100.00
2022-12-17T11:04:50.312Z,100.00
2022-12-17T11:07:42.624Z,100.00
2022-12-17T11:10:40.703Z,100.00
2022-12-17T11:13:40.953Z,100.00
2022-12-17T11:16:40.701Z,100.00
2022-12-17T11:19:28.623Z,100.00
2022-12-17T11:22:19.965Z,100.00
2022-12-17T11:25:16.227Z,100.00
2022-12-17T11:28:08.070Z,100.00
2022-12-17T11:31:05.623Z,100.00
2022-12-17T11:34:15.295Z,100.00
2022-12-17T11:37:16.283Z,100.00
2022-12-17T11:40:12.188Z,100.00
2022-12-17T11:43:11.782Z,100.00
2022-12-17T11:46:03.199Z,100.00
2022-12-17T11:49:10.880Z,100.00
2022-12-17T11:52:30.940Z,100.00
2022-12-17T11:55:23.334Z,100.00
2022-12-17T11:58:21.341Z,100.00
2022-12-17T12:01:38.609Z,100.00
2022-12-17T12:04:48.413Z,100.00
2022-12-17T12:08:01.412Z,100.00
2022-12-17T12:11:11.675Z,100.00
2022-12-17T12:14:09.131Z,100.00
2022-12-17T12:17:10.765Z,100.00
2022-12-17T12:20:11.781Z,100.00
2022-12-17T12:23:25.935Z,100.00
2022-12-17T12:26:48.741Z,100.00
2022-12-17T12:29:43.198Z,100.00
2022-12-17T12:32:46.963Z,100.00
2022-12-17T12:35:41.348Z,100.00
2022-12-17T12:38:42.970Z,100.00
2022-12-17T12:41:53.989Z,100.00
2022-12-17T12:44:56.806Z,100.00
2022-12-17T12:48:14.187Z,100.00
2022-12-17T12:51:40.553Z,100.00
2022-12-17T12:54:45.280Z,100.00
2022-12-17T12:57:53.724Z,100.00
2022-12-17T13:01:14.595Z,100.00
2022-12-17T13:04:03.040Z,100.00
2022-12-17T13:06:50.880Z,100.00
2022-12-17T13:09:18.076Z,100.00
2022-12-17T13:11:48.196Z,100.00
2022-12-17T13:14:44.243Z,100.00
2022-12-17T13:17:17.230Z,100.00
2022-12-17T13:19:47.348Z,100.00
2022-12-17T13:22:23.784Z,100.00
2022-12-17T13:24:57.039Z,100.00
2022-12-17T13:27:35.788Z,100.00
2022-12-17T13:30:17.722Z,100.00
2022-12-17T13:32:50.897Z,100.00
2022-12-17T13:35:37.188Z,100.00
2022-12-17T13:38:36.455Z,100.00
2022-12-17T13:41:10.091Z,100.00
2022-12-17T13:43:58.421Z,100.00
2022-12-17T13:46:28.868Z,100.00
2022-12-17T13:49:04.527Z,100.00
2022-12-17T13:51:33.989Z,100.00
2022-12-17T13:54:04.122Z,100.00
2022-12-17T13:56:36.927Z,100.00
2022-12-17T13:59:09.274Z,100.00
2022-12-17T14:01:47.863Z,100.00
2022-12-17T14:04:23.264Z,100.00
2022-12-17T14:06:50.861Z,100.00
2022-12-17T14:09:20.004Z,100.00
2022-12-17T14:12:06.565Z,100.00
2022-12-17T14:14:39.823Z,100.00
2022-12-17T14:17:15.278Z,100.00
2022-12-17T14:19:42.238Z,100.00
2022-12-17T14:22:16.980Z,100.00
2022-12-17T14:24:43.893Z,100.00
2022-12-17T14:27:32.078Z,100.00
2022-12-17T14:29:58.862Z,100.00
2022-12-17T14:32:32.904Z,100.00
2022-12-17T14:35:01.000Z,100.00
2022-12-17T14:37:29.247Z,100.00
2022-12-17T14:40:01.880Z,100.00
2022-12-17T14:42:34.497Z,100.00
2022-12-17T14:45:07.794Z,100.00
2022-12-17T14:47:39.603Z,100.00
2022-12-17T14:50:06.261Z,100.00
2022-12-17T14:52:40.752Z,100.00
2022-12-17T14:55:23.192Z,100.00
2022-12-17T14:57:51.499Z,100.00
2022-12-17T15:00:19.059Z,100.00
2022-12-17T15:02:52.261Z,100.00
2022-12-17T15:05:19.263Z,100.00
2022-12-17T15:07:46.357Z,100.00
2022-12-17T15:10:16.638Z,100.00
2022-12-17T15:12:43.826Z,100.00
2022-12-17T15:15:17.303Z,100.00
2022-12-17T15:17:44.326Z,100.00
2022-12-17T15:20:17.544Z,100.00
2022-12-17T15:22:44.868Z,100.00
2022-12-17T15:25:17.661Z,100.00
2022-12-17T15:27:44.787Z,100.00
2022-12-17T15:30:16.748Z,100.00
2022-12-17T15:32:44.663Z,100.00
2022-12-17T15:35:12.654Z,100.00
2022-12-17T15:37:39.711Z,100.00
2022-12-17T15:40:11.874Z,100.00
2022-12-17T15:43:02.942Z,100.00
2022-12-17T15:45:32.814Z,100.00
2022-12-17T15:47:59.647Z,100.00
2022-12-17T15:50:26.661Z,100.00
2022-12-17T15:52:53.416Z,100.00
2022-12-17T15:55:20.192Z,100.00
2022-12-17T15:57:46.980Z,100.00
2022-12-17T16:00:14.463Z,100.00
2022-12-17T16:02:42.059Z,100.00
2022-12-17T16:05:09.429Z,100.00
2022-12-17T16:07:37.947Z,100.00
2022-12-17T16:10:06.719Z,100.00
2022-12-17T16:12:33.929Z,100.00
2022-12-17T16:15:00.772Z,100.00
2022-12-17T16:17:27.820Z,100.00
2022-12-17T16:19:54.646Z,100.00
2022-12-17T16:22:21.542Z,100.00
2022-12-17T16:24:48.338Z,100.00
2022-12-17T16:27:18.239Z,100.00
2022-12-17T16:29:46.828Z,100.00
2022-12-17T16:32:14.546Z,100.00
2022-12-17T16:34:44.932Z,100.00
2022-12-17T16:37:11.769Z,100.00
2022-12-17T16:39:38.763Z,100.00
2022-12-17T16:42:07.787Z,100.00
2022-12-17T16:44:34.670Z,100.00
2022-12-17T16:47:01.548Z,100.00
2022-12-17T16:49:28.707Z,100.00
2022-12-17T16:51:57.931Z,100.00
2022-12-17T16:54:27.306Z,100.00
2022-12-17T16:56:54.678Z,100.00
2022-12-17T16:59:23.556Z,100.00
2022-12-17T17:01:53.587Z,100.00
2022-12-17T17:04:23.073Z,100.00
2022-12-17T17:06:52.125Z,100.00
2022-12-17T17:09:19.968Z,100.00
2022-12-17T17:11:51.410Z,100.00
2022-12-17T17:14:19.922Z,100.00
2022-12-17T17:16:46.832Z,100.00
2022-12-17T17:19:13.839Z,100.00
2022-12-17T17:21:42.533Z,100.00
2022-12-17T17:24:20.757Z,100.00
2022-12-17T17:26:49.644Z,100.00
2022-12-17T17:29:16.916Z,100.00
2022-12-17T17:32:09.274Z,100.00
2022-12-17T17:34:31.890Z,100.00
2022-12-17T17:36:58.620Z,100.00
2022-12-17T17:39:25.860Z,100.00
2022-12-17T17:41:52.799Z,100.00
2022-12-17T17:44:19.493Z,100.00
2022-12-17T17:46:46.280Z,100.00
2022-12-17T17:49:13.052Z,100.00
2022-12-17T17:54:29.218Z,100.00
2022-12-17T17:56:55.961Z,100.00
2022-12-17T17:59:30.870Z,100.00
2022-12-17T18:01:59.941Z,100.00
2022-12-17T18:04:26.932Z,100.00
2022-12-17T18:07:23.533Z,100.00
2022-12-17T18:09:40.603Z,100.00
2022-12-17T18:12:25.813Z,100.00
2022-12-17T18:15:13.257Z,100.00
2022-12-17T18:17:39.881Z,100.00
2022-12-17T18:20:07.338Z,100.00
2022-12-17T18:22:34.149Z,100.00
2022-12-17T18:25:01.027Z,100.00
2022-12-17T18:27:27.882Z,100.00
2022-12-17T18:29:54.711Z,100.00
2022-12-17T18:32:21.505Z,100.00
2022-12-17T18:34:48.322Z,100.00
2022-12-17T18:37:15.158Z,100.00
2022-12-17T18:39:42.026Z,100.00
2022-12-17T18:42:27.845Z,100.00
2022-12-17T18:44:54.707Z,100.00
2022-12-17T18:47:21.609Z,100.00
2022-12-17T18:49:48.723Z,100.00
2022-12-17T18:52:17.275Z,100.00
2022-12-17T18:54:44.914Z,100.00
2022-12-17T18:57:12.250Z,100.00
2022-12-17T18:59:41.252Z,100.00
2022-12-17T19:02:12.803Z,100.00
2022-12-17T19:04:39.858Z,100.00
2022-12-17T19:07:07.005Z,100.00
2022-12-17T19:09:38.430Z,100.00
2022-12-17T19:12:07.028Z,100.00
2022-12-17T19:14:34.572Z,100.00
2022-12-17T19:17:02.283Z,100.00
2022-12-17T19:19:29.516Z,100.00
2022-12-17T19:21:56.351Z,100.00
2022-12-17T19:24:24.183Z,100.00
2022-12-17T19:26:52.024Z,100.00
2022-12-17T19:29:20.149Z,100.00
2022-12-17T19:31:47.209Z,100.00
2022-12-17T19:34:16.076Z,100.00
2022-12-17T19:36:43.828Z,100.00
2022-12-17T19:39:17.026Z,100.00
2022-12-17T19:41:44.481Z,100.00
2022-12-17T19:44:13.992Z,100.00
2022-12-17T19:46:42.071Z,100.00
2022-12-17T19:49:12.319Z,100.00
2022-12-17T19:51:42.858Z,100.00
2022-12-17T19:54:12.524Z,100.00
2022-12-17T19:56:39.652Z,100.00
2022-12-17T19:59:08.034Z,100.00
2022-12-17T20:01:38.232Z,100.00
2022-12-17T20:04:06.029Z,100.00
2022-12-17T20:06:34.348Z,100.00
2022-12-17T20:09:04.867Z,100.00
2022-12-17T20:11:35.129Z,100.00
2022-12-17T20:14:18.376Z,100.00
2022-12-17T20:16:48.111Z,100.00
2022-12-17T20:19:18.239Z,100.00
2022-12-17T20:21:45.323Z,100.00
2022-12-17T20:24:12.963Z,100.00
2022-12-17T20:26:40.273Z,100.00
2022-12-17T20:29:08.049Z,100.00
2022-12-17T20:31:35.310Z,100.00
2022-12-17T20:34:05.720Z,100.00
2022-12-17T20:36:32.532Z,100.00
2022-12-17T20:38:59.751Z,100.00
2022-12-17T20:41:28.919Z,100.00
2022-12-17T20:43:56.454Z,100.00
2022-12-17T20:46:27.152Z,100.00
2022-12-17T20:48:53.896Z,100.00
2022-12-17T20:51:23.527Z,100.00
2022-12-17T20:53:52.407Z,100.00
2022-12-17T20:56:26.299Z,100.00
2022-12-17T20:58:55.163Z,100.00
2022-12-17T21:01:23.839Z,100.00
2022-12-17T21:03:53.025Z,100.00
2022-12-17T21:06:32.473Z,100.00
2022-12-17T21:08:59.548Z,100.00
2022-12-17T21:11:28.897Z,100.00
2022-12-17T21:13:56.009Z,100.00
2022-12-17T21:16:26.118Z,100.00
2022-12-17T21:18:57.433Z,100.00
2022-12-17T21:21:27.672Z,100.00
2022-12-17T21:23:56.028Z,100.00
2022-12-17T21:26:29.524Z,100.00
2022-12-17T21:28:56.966Z,100.00
2022-12-17T21:31:48.887Z,100.00
2022-12-17T21:34:21.251Z,100.00
2022-12-17T21:36:49.228Z,100.00
2022-12-17T21:39:16.836Z,100.00
2022-12-17T21:42:05.057Z,100.00
2022-12-17T21:44:32.238Z,100.00
2022-12-17T21:46:59.666Z,100.00
2022-12-17T21:49:26.545Z,100.00
2022-12-17T21:51:54.022Z,100.00
2022-12-17T21:54:20.756Z,100.00
2022-12-17T21:56:47.988Z,100.00
2022-12-17T21:59:14.744Z,100.00
2022-12-17T22:01:41.890Z,100.00
2022-12-17T22:04:11.849Z,100.00
2022-12-17T22:06:41.812Z,100.00
2022-12-17T22:09:22.983Z,100.00
2022-12-17T22:12:18.707Z,100.00
2022-12-17T22:14:46.943Z,100.00
2022-12-17T22:17:13.744Z,100.00
2022-12-17T22:19:40.569Z,100.00
2022-12-17T22:22:07.471Z,100.00
2022-12-17T22:24:36.358Z,100.00
2022-12-17T22:27:04.148Z,100.00
2022-12-17T22:29:54.868Z,100.00
2022-12-17T22:32:40.103Z,100.00
2022-12-17T22:38:34.750Z,100.00
2022-12-17T22:41:06.129Z,100.00
2022-12-17T22:44:38.557Z,100.00
2022-12-17T22:44:41.441Z,100.00
2022-12-17T22:46:19.081Z,100.00
2022-12-17T22:48:45.880Z,100.00
2022-12-17T22:51:16.122Z,100.00
2022-12-17T22:53:47.915Z,100.00
2022-12-17T22:56:28.209Z,100.00
2022-12-17T22:59:02.262Z,100.00
2022-12-17T23:01:29.548Z,100.00
2022-12-17T23:03:58.394Z,100.00
2022-12-17T23:06:26.228Z,100.00
2022-12-17T23:08:53.334Z,100.00
2022-12-17T23:11:25.339Z,100.00
2022-12-17T23:13:53.099Z,100.00
2022-12-17T23:16:20.616Z,100.00
2022-12-17T23:18:48.818Z,100.00
2022-12-17T23:21:19.147Z,100.00
2022-12-17T23:23:45.963Z,100.00
2022-12-17T23:26:24.300Z,100.00
2022-12-17T23:28:59.212Z,100.00
2022-12-17T23:31:33.115Z,100.00
2022-12-17T23:34:00.003Z,100.00
2022-12-17T23:36:27.226Z,100.00
2022-12-17T23:38:56.659Z,100.00
2022-12-17T23:41:26.792Z,100.00
2022-12-17T23:43:54.591Z,100.00
2022-12-17T23:46:23.019Z,100.00
2022-12-17T23:48:50.412Z,100.00
2022-12-17T23:51:19.992Z,100.00
2022-12-17T23:53:46.830Z,100.00
2022-12-17T23:56:26.194Z,100.00
2022-12-17T23:58:55.154Z,100.00
